TimeEST,TemperatureF,Dew PointF,Humidity,Sea Level PressureIn,VisibilityMPH,Wind Direction,Wind SpeedMPH,Gust SpeedMPH,PrecipitationIn,Events,Conditions,WindDirDegrees,DateUTC
12:53 AM,34.0,30.0,85,30.38,9.0,Calm,Calm,-,N/A,,Clear,0,2012-11-29 05:53:00
2:53 AM,30.0,28.9,96,30.40,7.0,Calm,Calm,-,N/A,,Clear,0,2012-11-29 07:53:00
3:53 AM,30.9,28.0,89,30.40,8.0,Calm,Calm,-,N/A,,Clear,0,2012-11-29 08:53:00
4:53 AM,30.0,28.0,92,30.40,8.0,Calm,Calm,-,N/A,,Clear,0,2012-11-29 09:53:00
5:53 AM,30.0,27.0,88,30.41,8.0,Calm,Calm,-,N/A,,Clear,0,2012-11-29 10:53:00
6:53 AM,28.0,26.1,92,30.43,8.0,Calm,Calm,-,N/A,,Clear,0,2012-11-29 11:53:00
7:53 AM,33.1,28.9,85,30.45,9.0,Calm,Calm,-,N/A,,Clear,0,2012-11-29 12:53:00
8:53 AM,37.9,30.9,76,30.47,10.0,NNE,3.5,-,N/A,,Clear,30,2012-11-29 13:53:00
9:53 AM,44.1,30.9,60,30.48,10.0,NNE,5.8,-,N/A,,Clear,30,2012-11-29 14:53:00
10:53 AM,48.0,28.9,48,30.48,10.0,Calm,Calm,-,N/A,,Clear,0,2012-11-29 15:53:00
11:53 AM,52.0,28.9,41,30.46,10.0,Calm,Calm,-,N/A,,Clear,0,2012-11-29 16:53:00
12:53 PM,54.0,28.0,37,30.43,10.0,SW,5.8,-,N/A,,Clear,220,2012-11-29 17:53:00
1:53 PM,55.9,30.0,37,30.40,10.0,SW,6.9,-,N/A,,Clear,220,2012-11-29 18:53:00
2:53 PM,55.9,30.0,37,30.38,10.0,Calm,Calm,-,N/A,,Clear,0,2012-11-29 19:53:00
3:53 PM,55.9,30.9,39,30.38,10.0,WSW,6.9,-,N/A,,Clear,240,2012-11-29 20:53:00
4:53 PM,54.0,32.0,43,30.38,10.0,Calm,Calm,-,N/A,,Clear,0,2012-11-29 21:53:00
5:53 PM,46.0,35.1,66,30.38,10.0,Calm,Calm,-,N/A,,Clear,0,2012-11-29 22:53:00
6:53 PM,44.1,36.0,73,30.39,10.0,SSW,3.5,-,N/A,,Clear,200,2012-11-29 23:53:00
7:53 PM,42.1,34.0,73,30.40,10.0,Calm,Calm,-,N/A,,Clear,0,2012-11-30 00:53:00
8:53 PM,39.9,33.1,77,30.41,10.0,Calm,Calm,-,N/A,,Clear,0,2012-11-30 01:53:00
9:53 PM,36.0,34.0,93,30.41,9.0,Calm,Calm,-,N/A,,Clear,0,2012-11-30 02:53:00
10:53 PM,36.0,33.1,89,30.40,7.0,SSW,3.5,-,N/A,,Clear,210,2012-11-30 03:53:00
11:53 PM,35.1,32.0,89,30.40,7.0,Calm,Calm,-,N/A,,Clear,0,2012-11-30 04:53:00